sensor_id;sensor_type;location;lat;lon;timestamp;temperature;humidity
47754;DHT22;2038;51.728;6.674;2023-03-21T00:29:00;10.40;99.90
47754;DHT22;2038;51.728;6.674;2023-03-21T00:31:26;10.60;99.90
47754;DHT22;2038;51.728;6.674;2023-03-21T00:33:52;10.50;99.90
47754;DHT22;2038;51.728;6.674;2023-03-21T00:36:18;10.50;99.90
47754;DHT22;2038;51.728;6.674;2023-03-21T00:38:44;10.30;99.90
47754;DHT22;2038;51.728;6.674;2023-03-21T02:09:15;10.30;99.90
47754;DHT22;2038;51.728;6.674;2023-03-21T02:11:48;11.10;99.90
47754;DHT22;2038;51.728;6.674;2023-03-21T02:14:16;10.30;99.90
47754;DHT22;2038;51.728;6.674;2023-03-21T02:16:51;10.30;99.90
47754;DHT22;2038;51.728;6.674;2023-03-21T02:29:14;10.60;99.90
47754;DHT22;2038;51.728;6.674;2023-03-21T02:32:34;10.30;99.90
47754;DHT22;2038;51.728;6.674;2023-03-21T03:02:51;10.20;99.90
47754;DHT22;2038;51.728;6.674;2023-03-21T03:05:24;10.20;99.90
47754;DHT22;2038;51.728;6.674;2023-03-21T03:08:17;10.20;99.90
47754;DHT22;2038;51.728;6.674;2023-03-21T03:14:10;10.10;99.90
47754;DHT22;2038;51.728;6.674;2023-03-21T03:17:28;10.10;99.90
47754;DHT22;2038;51.728;6.674;2023-03-21T03:26:32;9.90;99.90
47754;DHT22;2038;51.728;6.674;2023-03-21T03:29:17;10.00;99.90
47754;DHT22;2038;51.728;6.674;2023-03-21T05:06:58;9.90;99.90
47754;DHT22;2038;51.728;6.674;2023-03-21T05:09:24;9.80;99.90
47754;DHT22;2038;51.728;6.674;2023-03-21T05:11:50;9.80;99.90
47754;DHT22;2038;51.728;6.674;2023-03-21T05:14:19;9.70;99.90
47754;DHT22;2038;51.728;6.674;2023-03-21T05:16:49;9.80;99.90
47754;DHT22;2038;51.728;6.674;2023-03-21T05:19:26;10.80;99.90
47754;DHT22;2038;51.728;6.674;2023-03-21T05:22:03;9.80;99.90
47754;DHT22;2038;51.728;6.674;2023-03-21T05:24:33;9.90;99.90
47754;DHT22;2038;51.728;6.674;2023-03-21T05:27:01;9.80;99.90
47754;DHT22;2038;51.728;6.674;2023-03-21T05:29:29;9.90;99.90
47754;DHT22;2038;51.728;6.674;2023-03-21T05:31:57;9.80;99.90
47754;DHT22;2038;51.728;6.674;2023-03-21T05:34:25;9.80;99.90
47754;DHT22;2038;51.728;6.674;2023-03-21T05:36:52;9.70;99.90
47754;DHT22;2038;51.728;6.674;2023-03-21T05:39:19;9.70;99.90
47754;DHT22;2038;51.728;6.674;2023-03-21T05:41:45;9.70;99.90
47754;DHT22;2038;51.728;6.674;2023-03-21T05:44:11;9.50;99.90
47754;DHT22;2038;51.728;6.674;2023-03-21T05:46:37;9.60;99.90
47754;DHT22;2038;51.728;6.674;2023-03-21T05:49:03;9.60;99.90
47754;DHT22;2038;51.728;6.674;2023-03-21T05:51:28;9.60;99.90
47754;DHT22;2038;51.728;6.674;2023-03-21T05:53:54;9.60;99.90
47754;DHT22;2038;51.728;6.674;2023-03-21T05:56:20;9.60;99.90
47754;DHT22;2038;51.728;6.674;2023-03-21T05:58:46;9.50;99.90
47754;DHT22;2038;51.728;6.674;2023-03-21T06:01:12;9.60;99.90
47754;DHT22;2038;51.728;6.674;2023-03-21T06:03:38;9.60;99.90
47754;DHT22;2038;51.728;6.674;2023-03-21T06:06:05;9.50;99.90
47754;DHT22;2038;51.728;6.674;2023-03-21T06:08:32;9.60;99.90
47754;DHT22;2038;51.728;6.674;2023-03-21T06:10:58;9.60;99.90
47754;DHT22;2038;51.728;6.674;2023-03-21T06:13:23;9.50;99.90
47754;DHT22;2038;51.728;6.674;2023-03-21T06:15:49;9.50;99.90
47754;DHT22;2038;51.728;6.674;2023-03-21T06:18:15;9.60;99.90
47754;DHT22;2038;51.728;6.674;2023-03-21T06:20:41;9.40;99.90
47754;DHT22;2038;51.728;6.674;2023-03-21T06:23:07;9.50;99.90
47754;DHT22;2038;51.728;6.674;2023-03-21T06:25:33;10.30;99.90
47754;DHT22;2038;51.728;6.674;2023-03-21T06:27:58;9.50;99.90
47754;DHT22;2038;51.728;6.674;2023-03-21T06:30:24;9.50;99.90
47754;DHT22;2038;51.728;6.674;2023-03-21T06:32:50;9.60;99.90
47754;DHT22;2038;51.728;6.674;2023-03-21T06:35:17;9.50;99.90
47754;DHT22;2038;51.728;6.674;2023-03-21T06:37:43;9.50;99.90
47754;DHT22;2038;51.728;6.674;2023-03-21T06:40:10;9.60;99.90
47754;DHT22;2038;51.728;6.674;2023-03-21T06:42:37;9.60;99.90
47754;DHT22;2038;51.728;6.674;2023-03-21T06:45:04;9.60;99.90
47754;DHT22;2038;51.728;6.674;2023-03-21T06:47:30;9.60;99.90
47754;DHT22;2038;51.728;6.674;2023-03-21T06:49:56;9.80;99.90
47754;DHT22;2038;51.728;6.674;2023-03-21T06:52:22;10.00;99.90
47754;DHT22;2038;51.728;6.674;2023-03-21T06:54:48;9.70;99.90
47754;DHT22;2038;51.728;6.674;2023-03-21T06:57:15;9.60;99.90
47754;DHT22;2038;51.728;6.674;2023-03-21T06:59:42;9.60;99.90
47754;DHT22;2038;51.728;6.674;2023-03-21T07:02:10;9.70;99.90
47754;DHT22;2038;51.728;6.674;2023-03-21T07:04:36;9.70;99.90
47754;DHT22;2038;51.728;6.674;2023-03-21T07:07:02;9.70;99.90
47754;DHT22;2038;51.728;6.674;2023-03-21T07:09:28;9.70;99.90
47754;DHT22;2038;51.728;6.674;2023-03-21T07:11:53;9.80;99.90
47754;DHT22;2038;51.728;6.674;2023-03-21T07:14:19;9.80;99.90
47754;DHT22;2038;51.728;6.674;2023-03-21T07:16:45;9.90;99.90
47754;DHT22;2038;51.728;6.674;2023-03-21T07:19:11;9.90;99.90
47754;DHT22;2038;51.728;6.674;2023-03-21T07:21:37;9.90;99.90
47754;DHT22;2038;51.728;6.674;2023-03-21T07:24:03;10.00;99.90
47754;DHT22;2038;51.728;6.674;2023-03-21T07:26:29;11.10;99.90
47754;DHT22;2038;51.728;6.674;2023-03-21T07:28:55;10.00;99.90
47754;DHT22;2038;51.728;6.674;2023-03-21T07:31:20;10.10;99.90
47754;DHT22;2038;51.728;6.674;2023-03-21T07:33:50;10.40;99.90
47754;DHT22;2038;51.728;6.674;2023-03-21T07:36:16;10.20;99.90
47754;DHT22;2038;51.728;6.674;2023-03-21T07:38:43;10.00;99.90
47754;DHT22;2038;51.728;6.674;2023-03-21T07:41:10;10.30;99.90
47754;DHT22;2038;51.728;6.674;2023-03-21T07:43:37;10.40;99.90
47754;DHT22;2038;51.728;6.674;2023-03-21T07:46:03;10.40;99.90
47754;DHT22;2038;51.728;6.674;2023-03-21T07:48:30;10.40;99.90
47754;DHT22;2038;51.728;6.674;2023-03-21T07:50:56;10.40;99.90
47754;DHT22;2038;51.728;6.674;2023-03-21T07:53:22;10.40;99.90
47754;DHT22;2038;51.728;6.674;2023-03-21T07:55:50;10.40;99.90
47754;DHT22;2038;51.728;6.674;2023-03-21T07:58:17;10.50;99.90
47754;DHT22;2038;51.728;6.674;2023-03-21T08:00:43;10.40;99.90
47754;DHT22;2038;51.728;6.674;2023-03-21T08:03:09;10.40;99.90
47754;DHT22;2038;51.728;6.674;2023-03-21T08:05:36;10.40;99.90
47754;DHT22;2038;51.728;6.674;2023-03-21T08:08:04;10.50;99.90
47754;DHT22;2038;51.728;6.674;2023-03-21T08:10:31;10.60;99.90
